createdAt,value
2022-12-23T00:01:04.830Z,6.47
2022-12-23T00:03:31.265Z,6.43
2022-12-23T00:05:57.744Z,6.50
2022-12-23T00:08:24.268Z,6.53
2022-12-23T00:10:50.616Z,6.57
2022-12-23T00:13:35.763Z,6.62
2022-12-23T00:16:02.196Z,6.58
2022-12-23T00:18:28.533Z,6.63
2022-12-23T00:20:54.857Z,6.67
2022-12-23T00:23:21.223Z,6.68
2022-12-23T00:25:47.539Z,6.72
2022-12-23T00:28:13.927Z,6.62
2022-12-23T00:30:41.733Z,6.73
2022-12-23T00:33:08.056Z,6.68
2022-12-23T00:35:34.396Z,6.66
2022-12-23T00:38:00.752Z,6.64
2022-12-23T00:40:46.004Z,6.68
2022-12-23T00:43:12.357Z,6.75
2022-12-23T00:45:38.743Z,6.68
2022-12-23T00:48:24.032Z,6.71
2022-12-23T00:50:50.365Z,6.60
2022-12-23T00:53:16.675Z,6.66
2022-12-23T00:55:43.020Z,6.73
2022-12-23T00:58:09.332Z,6.74
2022-12-23T01:00:54.755Z,6.70
2022-12-23T01:03:40.066Z,6.65
2022-12-23T01:06:06.588Z,6.65
2022-12-23T01:08:32.914Z,6.77
2022-12-23T01:10:59.224Z,6.72
2022-12-23T01:13:25.533Z,6.65
2022-12-23T01:15:51.932Z,6.67
2022-12-23T01:18:18.249Z,6.64
2022-12-23T01:20:44.742Z,6.72
2022-12-23T01:23:11.064Z,6.69
2022-12-23T01:25:37.524Z,6.75
2022-12-23T01:28:03.846Z,6.71
2022-12-23T01:30:30.184Z,6.68
2022-12-23T01:32:56.532Z,6.64
2022-12-23T01:35:22.863Z,6.67
2022-12-23T01:37:49.220Z,6.74
2022-12-23T01:40:15.748Z,6.74
2022-12-23T01:42:45.413Z,6.74
2022-12-23T01:45:11.761Z,6.76
2022-12-23T01:47:38.081Z,6.83
2022-12-23T01:50:04.421Z,6.86
2022-12-23T01:52:30.726Z,6.84
2022-12-23T01:54:57.054Z,6.85
2022-12-23T01:57:23.414Z,6.85
2022-12-23T02:00:10.501Z,6.85
2022-12-23T02:02:55.778Z,6.88
2022-12-23T02:05:22.293Z,6.85
2022-12-23T02:08:07.468Z,6.76
2022-12-23T02:10:33.773Z,6.74
2022-12-23T02:13:00.111Z,6.78
2022-12-23T02:15:45.307Z,6.82
2022-12-23T02:18:11.619Z,6.92
2022-12-23T02:20:37.940Z,6.93
2022-12-23T02:23:04.266Z,6.88
2022-12-23T02:25:30.717Z,6.95
2022-12-23T02:27:57.037Z,6.90
2022-12-23T02:30:23.367Z,7.00
2022-12-23T02:32:49.741Z,7.06
2022-12-23T02:35:16.225Z,7.08
2022-12-23T02:37:42.543Z,7.06
2022-12-23T02:40:08.841Z,7.09
2022-12-23T02:42:35.144Z,7.10
2022-12-23T02:45:01.476Z,7.10
2022-12-23T02:47:27.783Z,7.02
2022-12-23T02:49:54.110Z,7.02
2022-12-23T02:52:20.538Z,7.08
2022-12-23T02:54:46.849Z,7.16
2022-12-23T02:57:13.197Z,7.15
2022-12-23T02:59:39.567Z,7.16
2022-12-23T03:02:05.947Z,7.18
2022-12-23T03:04:32.359Z,7.23
2022-12-23T03:07:04.325Z,7.29
2022-12-23T03:09:33.625Z,7.33
2022-12-23T03:11:59.958Z,7.30
2022-12-23T03:14:26.314Z,7.32
2022-12-23T03:16:52.669Z,7.33
2022-12-23T03:19:18.969Z,7.36
2022-12-23T03:21:45.353Z,7.23
2022-12-23T03:24:11.657Z,7.25
2022-12-23T03:26:37.988Z,7.24
2022-12-23T03:29:04.299Z,7.18
2022-12-23T03:31:30.709Z,7.29
2022-12-23T03:33:57.057Z,7.30
2022-12-23T03:36:23.355Z,7.38
2022-12-23T03:38:49.683Z,7.39
2022-12-23T03:41:16.021Z,7.48
2022-12-23T03:43:48.400Z,7.50
2022-12-23T03:46:16.982Z,7.44
2022-12-23T03:48:43.332Z,7.48
2022-12-23T03:51:09.652Z,7.52
2022-12-23T03:53:35.991Z,7.58
2022-12-23T03:56:02.431Z,7.65
2022-12-23T03:58:28.752Z,7.68
2022-12-23T04:00:55.119Z,7.67
2022-12-23T04:03:21.566Z,7.65
2022-12-23T04:05:47.906Z,7.70
2022-12-23T04:08:14.259Z,7.68
2022-12-23T04:10:40.570Z,7.68
2022-12-23T04:13:06.910Z,7.60
2022-12-23T04:15:33.270Z,7.56
2022-12-23T04:17:59.605Z,7.51
2022-12-23T04:20:25.975Z,7.49
2022-12-23T04:22:52.326Z,7.58
2022-12-23T04:25:18.650Z,7.69
2022-12-23T04:27:44.965Z,7.66
2022-12-23T04:30:11.269Z,7.61
2022-12-23T04:32:37.608Z,7.69
2022-12-23T04:35:03.922Z,7.71
2022-12-23T04:37:30.232Z,7.68
2022-12-23T04:39:56.544Z,7.74
2022-12-23T04:42:22.841Z,7.86
2022-12-23T04:44:49.152Z,7.86
2022-12-23T04:47:15.482Z,7.77
2022-12-23T04:49:41.788Z,7.63
2022-12-23T04:52:08.104Z,7.63
2022-12-23T04:54:34.436Z,7.64
2022-12-23T04:57:00.851Z,7.57
2022-12-23T04:59:27.191Z,7.61
2022-12-23T05:01:53.638Z,7.66
2022-12-23T05:04:20.094Z,7.85
2022-12-23T05:06:46.433Z,8.04
2022-12-23T05:09:12.750Z,8.04
2022-12-23T05:11:42.328Z,8.02
2022-12-23T05:14:08.963Z,8.09
2022-12-23T05:16:35.345Z,8.13
2022-12-23T05:19:01.927Z,8.23
2022-12-23T05:21:28.277Z,8.34
2022-12-23T05:23:54.604Z,8.54
2022-12-23T05:26:20.896Z,8.59
2022-12-23T05:28:47.536Z,8.66
2022-12-23T05:31:13.951Z,8.67
2022-12-23T05:33:40.402Z,8.68
2022-12-23T05:36:06.858Z,8.69
2022-12-23T05:38:33.164Z,8.76
2022-12-23T05:40:59.478Z,8.79
2022-12-23T05:43:25.880Z,8.85
2022-12-23T05:45:52.284Z,8.81
2022-12-23T05:48:18.667Z,8.77
2022-12-23T05:50:44.974Z,8.94
2022-12-23T05:53:11.301Z,8.95
2022-12-23T05:55:37.600Z,9.03
2022-12-23T05:58:03.907Z,9.04
2022-12-23T06:00:30.289Z,8.92
2022-12-23T06:02:56.657Z,9.01
2022-12-23T06:05:23.177Z,9.12
2022-12-23T06:07:49.528Z,9.02
2022-12-23T06:10:15.865Z,9.11
2022-12-23T06:12:42.204Z,9.04
2022-12-23T06:15:08.524Z,9.10
2022-12-23T06:17:34.845Z,9.18
2022-12-23T06:20:01.195Z,9.23
2022-12-23T06:22:27.527Z,9.22
2022-12-23T06:24:53.946Z,9.22
2022-12-23T06:27:20.269Z,9.41
2022-12-23T06:29:46.563Z,9.34
2022-12-23T06:32:13.092Z,9.32
2022-12-23T06:34:39.480Z,9.40
2022-12-23T06:37:05.851Z,9.34
2022-12-23T06:39:32.216Z,9.37
2022-12-23T06:41:58.546Z,9.38
2022-12-23T06:44:24.878Z,9.38
2022-12-23T06:46:51.215Z,9.33
2022-12-23T06:49:17.614Z,9.40
2022-12-23T06:51:44.096Z,9.40
2022-12-23T06:54:10.763Z,9.28
2022-12-23T06:56:37.071Z,9.25
2022-12-23T06:59:03.399Z,9.08
2022-12-23T07:01:29.936Z,9.03
2022-12-23T07:03:56.341Z,8.98
2022-12-23T07:06:22.637Z,8.99
2022-12-23T07:08:48.960Z,8.97
2022-12-23T07:11:15.269Z,8.95
2022-12-23T07:13:41.576Z,8.92
2022-12-23T07:16:07.990Z,8.91
2022-12-23T07:18:34.763Z,8.86
2022-12-23T07:21:01.084Z,8.71
2022-12-23T07:23:27.386Z,8.82
2022-12-23T07:25:53.732Z,8.80
2022-12-23T07:28:20.113Z,8.74
2022-12-23T07:30:46.611Z,8.82
2022-12-23T07:33:12.924Z,8.92
2022-12-23T07:35:39.439Z,8.90
2022-12-23T07:38:05.759Z,8.78
2022-12-23T07:40:32.086Z,8.79
2022-12-23T07:42:58.424Z,8.81
2022-12-23T07:45:24.724Z,8.80
2022-12-23T07:47:51.042Z,8.72
2022-12-23T07:50:17.432Z,8.69
2022-12-23T07:52:43.742Z,8.77
2022-12-23T07:55:10.133Z,8.78
2022-12-23T07:57:38.263Z,8.85
2022-12-23T08:00:04.732Z,8.89
2022-12-23T08:02:31.177Z,8.87
2022-12-23T08:04:57.752Z,8.90
2022-12-23T08:07:24.076Z,8.96
2022-12-23T08:09:50.398Z,8.86
2022-12-23T08:12:16.716Z,8.91
2022-12-23T08:14:43.025Z,9.00
2022-12-23T08:17:09.431Z,9.00
2022-12-23T08:19:35.775Z,9.05
2022-12-23T08:22:02.088Z,9.18
2022-12-23T08:24:28.429Z,9.24
2022-12-23T08:26:54.901Z,9.12
2022-12-23T08:29:21.217Z,9.15
2022-12-23T08:31:47.528Z,9.05
2022-12-23T08:34:14.482Z,9.03
2022-12-23T08:36:40.792Z,9.20
2022-12-23T08:39:07.116Z,9.23
2022-12-23T08:41:33.515Z,9.33
2022-12-23T08:43:59.884Z,9.34
2022-12-23T08:46:26.431Z,9.41
2022-12-23T08:48:52.820Z,9.46
2022-12-23T08:51:19.185Z,9.42
2022-12-23T08:53:45.557Z,9.37
2022-12-23T08:56:11.898Z,9.41
2022-12-23T08:58:38.257Z,9.44
2022-12-23T09:01:04.623Z,9.41
2022-12-23T09:03:31.109Z,9.50
2022-12-23T09:05:57.540Z,9.54
2022-12-23T09:08:23.875Z,9.59
2022-12-23T09:10:50.210Z,9.61
2022-12-23T09:13:26.346Z,9.64
2022-12-23T09:15:57.268Z,9.71
2022-12-23T09:18:23.663Z,9.60
2022-12-23T09:20:49.996Z,9.61
2022-12-23T09:23:16.301Z,9.58
2022-12-23T09:25:42.609Z,9.59
2022-12-23T09:28:08.977Z,9.65
2022-12-23T09:30:35.371Z,9.74
2022-12-23T09:33:01.686Z,9.69
2022-12-23T09:35:28.041Z,9.77
2022-12-23T09:37:54.385Z,9.80
2022-12-23T09:40:20.852Z,9.80
2022-12-23T09:42:47.315Z,9.80
2022-12-23T09:45:13.690Z,9.82
2022-12-23T09:47:40.039Z,9.94
2022-12-23T09:50:06.644Z,9.96
2022-12-23T09:52:32.979Z,10.07
2022-12-23T09:55:00.674Z,10.07
2022-12-23T09:57:26.996Z,10.19
2022-12-23T09:59:53.345Z,10.31
2022-12-23T10:02:19.749Z,10.71
2022-12-23T10:04:46.208Z,10.52
2022-12-23T10:07:12.520Z,10.54
2022-12-23T10:09:38.907Z,10.51
2022-12-23T10:12:07.203Z,10.60
2022-12-23T10:14:33.533Z,10.62
2022-12-23T10:17:00.243Z,10.47
2022-12-23T10:19:26.576Z,10.47
2022-12-23T10:21:52.895Z,10.47
2022-12-23T10:24:19.229Z,10.44
2022-12-23T10:26:45.567Z,10.39
2022-12-23T10:29:16.924Z,10.41
2022-12-23T10:31:45.307Z,10.40
2022-12-23T10:34:11.653Z,10.37
2022-12-23T10:36:38.043Z,10.35
2022-12-23T10:39:04.371Z,10.48
2022-12-23T10:41:30.697Z,10.53
2022-12-23T10:43:56.996Z,10.47
2022-12-23T10:46:23.329Z,10.52
2022-12-23T10:48:49.690Z,10.47
2022-12-23T10:51:16.073Z,10.41
2022-12-23T10:53:42.412Z,10.52
2022-12-23T10:56:08.723Z,10.58
2022-12-23T10:58:35.043Z,10.51
2022-12-23T11:01:01.547Z,10.45
2022-12-23T11:03:28.048Z,10.52
2022-12-23T11:05:54.537Z,10.62
2022-12-23T11:08:20.866Z,10.60
2022-12-23T11:10:47.243Z,10.57
2022-12-23T11:13:14.461Z,10.56
2022-12-23T11:15:40.797Z,10.49
2022-12-23T11:18:07.768Z,10.54
2022-12-23T11:20:34.108Z,10.54
2022-12-23T11:23:02.283Z,10.58
2022-12-23T11:25:28.848Z,10.57
2022-12-23T11:27:55.179Z,10.52
2022-12-23T11:30:21.519Z,10.64
2022-12-23T11:32:47.884Z,10.65
2022-12-23T11:35:14.670Z,10.77
2022-12-23T11:37:41.027Z,10.76
2022-12-23T11:40:07.580Z,10.80
2022-12-23T11:42:33.922Z,10.87
2022-12-23T11:45:00.228Z,11.01
2022-12-23T11:47:26.587Z,11.11
2022-12-23T11:49:52.912Z,11.18
2022-12-23T11:52:19.268Z,11.09
2022-12-23T11:54:49.804Z,11.06
2022-12-23T11:57:19.270Z,11.07
2022-12-23T11:59:45.611Z,11.13
2022-12-23T12:02:11.995Z,11.23
2022-12-23T12:04:38.366Z,11.36
2022-12-23T12:07:04.781Z,11.37
2022-12-23T12:09:31.113Z,11.46
2022-12-23T12:11:57.431Z,11.27
2022-12-23T12:14:23.764Z,11.23
2022-12-23T12:16:51.521Z,11.25
2022-12-23T12:19:18.842Z,11.27
2022-12-23T12:21:45.249Z,11.36
2022-12-23T12:24:19.779Z,11.48
2022-12-23T12:26:47.171Z,11.50
2022-12-23T12:29:13.684Z,11.64
2022-12-23T12:31:40.017Z,11.56
2022-12-23T12:34:06.394Z,11.55
2022-12-23T12:36:32.746Z,11.41
2022-12-23T12:38:59.147Z,11.37
2022-12-23T12:41:25.516Z,11.25
2022-12-23T12:43:51.821Z,11.42
2022-12-23T12:46:18.234Z,11.31
2022-12-23T12:48:44.576Z,11.16
2022-12-23T12:51:10.891Z,11.18
2022-12-23T12:53:37.224Z,11.18
2022-12-23T12:56:03.544Z,11.08
2022-12-23T12:58:31.093Z,11.04
2022-12-23T13:00:57.434Z,11.00
2022-12-23T13:03:23.848Z,10.99
2022-12-23T13:05:54.062Z,10.89
2022-12-23T13:08:20.993Z,11.02
2022-12-23T13:10:47.339Z,10.94
2022-12-23T13:13:14.551Z,10.90
2022-12-23T13:15:40.886Z,10.93
2022-12-23T13:18:07.654Z,10.92
2022-12-23T13:20:34.118Z,10.91
2022-12-23T13:23:20.832Z,10.89
2022-12-23T13:25:46.913Z,10.93
2022-12-23T13:28:13.230Z,10.86
2022-12-23T13:30:39.635Z,10.72
2022-12-23T13:33:06.967Z,10.78
2022-12-23T13:35:33.927Z,10.71
2022-12-23T13:38:00.320Z,10.71
2022-12-23T13:40:26.665Z,10.66
2022-12-23T13:42:52.996Z,10.69
2022-12-23T13:45:19.317Z,10.66
2022-12-23T13:47:45.712Z,10.69
2022-12-23T13:50:12.046Z,10.63
2022-12-23T13:52:38.521Z,10.63
2022-12-23T13:55:04.844Z,10.62
2022-12-23T13:57:31.183Z,10.63
2022-12-23T14:00:04.658Z,10.58
2022-12-23T14:02:32.194Z,10.60
2022-12-23T14:04:58.774Z,10.58
2022-12-23T14:07:25.081Z,10.63
2022-12-23T14:09:51.384Z,10.56
2022-12-23T14:12:17.695Z,10.60
2022-12-23T14:14:44.049Z,10.56
2022-12-23T14:17:10.370Z,10.60
2022-12-23T14:19:36.682Z,10.62
2022-12-23T14:22:02.982Z,10.64
2022-12-23T14:24:29.307Z,10.69
2022-12-23T14:26:55.618Z,10.70
2022-12-23T14:29:21.941Z,10.73
2022-12-23T14:31:48.318Z,10.74
2022-12-23T14:34:14.690Z,10.69
2022-12-23T14:36:41.148Z,10.67
2022-12-23T14:39:07.889Z,10.59
2022-12-23T14:41:34.206Z,10.55
2022-12-23T14:44:02.857Z,10.57
2022-12-23T14:46:29.377Z,10.56
2022-12-23T14:49:15.938Z,10.56
2022-12-23T14:51:42.104Z,10.55
2022-12-23T14:54:08.412Z,10.57
2022-12-23T14:56:34.732Z,10.56
2022-12-23T14:59:01.085Z,10.55
2022-12-23T15:01:27.733Z,10.53
2022-12-23T15:04:01.051Z,10.51
2022-12-23T15:06:28.576Z,10.50
2022-12-23T15:08:54.888Z,10.43
2022-12-23T15:11:21.681Z,10.46
2022-12-23T15:13:47.992Z,10.38
2022-12-23T15:16:14.545Z,10.44
2022-12-23T15:18:40.872Z,10.37
2022-12-23T15:21:07.188Z,10.26
2022-12-23T15:23:34.000Z,10.22
2022-12-23T15:26:00.365Z,10.07
2022-12-23T15:28:26.857Z,10.18
2022-12-23T15:30:53.289Z,10.21
2022-12-23T15:33:51.994Z,10.19
2022-12-23T15:36:06.111Z,10.10
2022-12-23T15:38:32.462Z,10.15
2022-12-23T15:40:58.967Z,10.19
2022-12-23T15:43:25.483Z,10.04
2022-12-23T15:45:52.311Z,10.01
2022-12-23T15:48:18.623Z,9.90
2022-12-23T15:50:44.943Z,9.94
2022-12-23T15:53:11.295Z,9.86
2022-12-23T15:55:37.637Z,9.95
2022-12-23T15:58:03.993Z,9.98
2022-12-23T16:00:30.420Z,9.97
2022-12-23T16:03:02.514Z,9.94
2022-12-23T16:05:30.212Z,9.93
2022-12-23T16:07:56.537Z,9.88
2022-12-23T16:10:22.855Z,9.86
2022-12-23T16:12:49.157Z,9.90
2022-12-23T16:15:19.631Z,9.91
2022-12-23T16:17:45.939Z,9.92
2022-12-23T16:20:12.291Z,9.94
2022-12-23T16:22:38.619Z,9.92
2022-12-23T16:25:04.954Z,9.92
2022-12-23T16:27:31.281Z,9.93
2022-12-23T16:29:57.753Z,9.87
2022-12-23T16:32:24.154Z,9.82
2022-12-23T16:34:50.563Z,9.82
2022-12-23T16:37:16.888Z,9.82
2022-12-23T16:39:43.215Z,9.86
2022-12-23T16:42:09.574Z,9.79
2022-12-23T16:44:35.906Z,9.75
2022-12-23T16:47:02.206Z,9.70
2022-12-23T16:49:33.396Z,9.75
2022-12-23T16:52:00.428Z,9.71
2022-12-23T16:54:26.761Z,9.71
2022-12-23T16:56:53.191Z,9.74
2022-12-23T16:59:20.713Z,9.70
2022-12-23T17:01:47.283Z,9.73
2022-12-23T17:04:13.777Z,9.66
2022-12-23T17:06:40.984Z,9.62
2022-12-23T17:09:08.351Z,9.54
2022-12-23T17:11:34.665Z,9.51
2022-12-23T17:14:05.681Z,9.54
2022-12-23T17:16:33.225Z,9.58
2022-12-23T17:19:00.212Z,9.58
2022-12-23T17:21:26.572Z,9.47
2022-12-23T17:23:52.900Z,9.54
2022-12-23T17:26:19.236Z,9.42
2022-12-23T17:28:45.896Z,9.48
2022-12-23T17:31:15.403Z,9.45
2022-12-23T17:33:43.532Z,9.35
2022-12-23T17:36:09.928Z,9.38
2022-12-23T17:38:36.305Z,9.21
2022-12-23T17:41:03.340Z,9.16
2022-12-23T17:43:29.816Z,9.11
2022-12-23T17:45:56.190Z,9.09
2022-12-23T17:48:26.664Z,8.93
2022-12-23T17:50:57.605Z,8.95
2022-12-23T17:53:23.977Z,8.89
2022-12-23T17:55:50.300Z,8.86
2022-12-23T17:58:16.756Z,8.87
2022-12-23T18:00:43.281Z,8.96
2022-12-23T18:03:09.694Z,8.99
2022-12-23T18:05:36.342Z,8.99
2022-12-23T18:08:02.681Z,8.96
2022-12-23T18:10:29.095Z,8.96
2022-12-23T18:12:55.417Z,8.98
2022-12-23T18:15:21.730Z,8.81
2022-12-23T18:17:48.058Z,8.76
2022-12-23T18:20:14.383Z,8.81
2022-12-23T18:22:40.733Z,8.86
2022-12-23T18:25:07.067Z,8.75
2022-12-23T18:27:33.401Z,8.80
2022-12-23T18:29:59.746Z,8.81
2022-12-23T18:32:26.109Z,8.75
2022-12-23T18:34:52.469Z,8.80
2022-12-23T18:37:18.772Z,8.51
2022-12-23T18:39:45.116Z,8.60
2022-12-23T18:42:11.427Z,8.63
2022-12-23T18:44:37.729Z,8.61
2022-12-23T18:47:04.025Z,8.56
2022-12-23T18:49:30.381Z,8.52
2022-12-23T18:51:56.676Z,8.51
2022-12-23T18:54:22.982Z,8.49
2022-12-23T18:56:49.456Z,8.47
2022-12-23T18:59:15.791Z,8.43
2022-12-23T19:01:42.239Z,8.41
2022-12-23T19:04:08.607Z,8.43
2022-12-23T19:06:34.952Z,8.41
2022-12-23T19:09:01.251Z,8.42
2022-12-23T19:11:27.581Z,8.45
2022-12-23T19:13:53.925Z,8.39
2022-12-23T19:16:20.590Z,8.39
2022-12-23T19:18:47.030Z,8.37
2022-12-23T19:21:13.431Z,8.37
2022-12-23T19:23:39.739Z,8.33
2022-12-23T19:26:06.371Z,8.32
2022-12-23T19:28:32.708Z,8.30
2022-12-23T19:30:59.096Z,8.30
2022-12-23T19:33:25.608Z,8.14
2022-12-23T19:35:51.921Z,8.23
2022-12-23T19:38:18.243Z,8.20
2022-12-23T19:40:44.759Z,8.13
2022-12-23T19:43:11.106Z,8.07
2022-12-23T19:45:37.491Z,8.14
2022-12-23T19:48:03.896Z,8.06
2022-12-23T19:50:30.312Z,8.07
2022-12-23T19:52:56.875Z,8.03
2022-12-23T19:55:23.270Z,7.95
2022-12-23T19:57:53.386Z,7.90
2022-12-23T20:00:19.760Z,7.94
2022-12-23T20:02:46.268Z,8.01
2022-12-23T20:05:12.621Z,8.00
2022-12-23T20:07:39.165Z,8.11
2022-12-23T20:10:05.543Z,8.08
2022-12-23T20:12:31.967Z,8.08
2022-12-23T20:14:58.288Z,8.10
2022-12-23T20:17:24.609Z,8.02
2022-12-23T20:19:50.952Z,8.11
2022-12-23T20:22:17.280Z,8.07
2022-12-23T20:24:43.623Z,8.18
2022-12-23T20:27:12.503Z,8.15
2022-12-23T20:29:39.587Z,8.15
2022-12-23T20:32:05.982Z,8.17
2022-12-23T20:34:38.606Z,8.18
2022-12-23T20:37:05.737Z,8.16
2022-12-23T20:39:32.100Z,8.15
2022-12-23T20:41:58.487Z,8.06
2022-12-23T20:44:34.430Z,8.14
2022-12-23T20:47:01.848Z,8.15
2022-12-23T20:49:28.269Z,8.14
2022-12-23T20:51:54.594Z,8.13
2022-12-23T20:54:31.672Z,8.17
2022-12-23T20:56:59.426Z,8.16
2022-12-23T20:59:25.724Z,8.14
2022-12-23T21:01:52.220Z,8.20
2022-12-23T21:04:18.591Z,8.17
2022-12-23T21:06:44.972Z,8.11
2022-12-23T21:09:11.760Z,8.15
2022-12-23T21:11:38.365Z,8.07
2022-12-23T21:14:07.097Z,8.12
2022-12-23T21:16:33.887Z,8.13
2022-12-23T21:19:00.292Z,8.13
2022-12-23T21:21:26.736Z,8.17
2022-12-23T21:23:53.052Z,8.21
2022-12-23T21:26:19.408Z,8.29
2022-12-23T21:28:48.890Z,8.10
2022-12-23T21:31:15.352Z,8.05
2022-12-23T21:33:41.695Z,8.10
2022-12-23T21:36:08.090Z,8.15
2022-12-23T21:38:34.500Z,8.20
2022-12-23T21:41:00.831Z,8.20
2022-12-23T21:43:27.201Z,8.29
2022-12-23T21:45:53.525Z,8.29
2022-12-23T21:48:19.858Z,8.25
2022-12-23T21:50:46.192Z,8.25
2022-12-23T21:53:12.674Z,8.33
2022-12-23T21:55:38.982Z,8.23
2022-12-23T21:58:05.296Z,8.34
2022-12-23T22:00:31.647Z,8.29
2022-12-23T22:02:58.016Z,8.35
2022-12-23T22:05:24.351Z,8.39
2022-12-23T22:07:50.653Z,8.41
2022-12-23T22:10:16.958Z,8.42
2022-12-23T22:12:43.268Z,8.37
2022-12-23T22:15:11.643Z,8.49
2022-12-23T22:17:38.362Z,8.39
2022-12-23T22:20:04.677Z,8.35
2022-12-23T22:22:30.998Z,8.45
2022-12-23T22:24:57.329Z,8.45
2022-12-23T22:27:23.637Z,8.42
2022-12-23T22:29:49.949Z,8.46
2022-12-23T22:32:16.302Z,8.41
2022-12-23T22:34:42.607Z,8.40
2022-12-23T22:37:08.912Z,8.27
2022-12-23T22:39:35.249Z,8.34
2022-12-23T22:42:01.570Z,8.41
2022-12-23T22:44:27.881Z,8.14
2022-12-23T22:46:54.218Z,8.36
2022-12-23T22:49:20.605Z,8.43
2022-12-23T22:51:46.965Z,8.39
2022-12-23T22:54:13.339Z,8.36
2022-12-23T22:56:39.718Z,8.32
2022-12-23T22:59:06.053Z,8.75
2022-12-23T23:01:32.401Z,8.87
2022-12-23T23:03:58.761Z,9.23
2022-12-23T23:06:25.148Z,9.42
2022-12-23T23:08:51.459Z,9.34
2022-12-23T23:11:17.779Z,9.41
2022-12-23T23:13:44.098Z,9.39
2022-12-23T23:16:10.592Z,9.47
2022-12-23T23:18:39.382Z,9.59
2022-12-23T23:21:05.836Z,9.91
2022-12-23T23:23:32.185Z,9.90
2022-12-23T23:25:58.534Z,9.84
2022-12-23T23:28:24.845Z,9.76
2022-12-23T23:31:09.780Z,9.88
2022-12-23T23:33:37.672Z,9.74
2022-12-23T23:36:04.031Z,9.69
2022-12-23T23:38:30.390Z,9.93
2022-12-23T23:40:56.725Z,10.07
2022-12-23T23:43:23.070Z,9.96
2022-12-23T23:45:49.563Z,9.83
2022-12-23T23:48:16.303Z,9.89
2022-12-23T23:50:42.609Z,10.12
2022-12-23T23:53:08.957Z,10.04
2022-12-23T23:55:35.282Z,10.00
2022-12-23T23:58:01.666Z,10.03
